SLJE/SJS METAR and TAF weather

Enter ICAO airport designator
Station Type Date Time Source
SLJE METAR 2019/06/17 15:00 UTC NOAA

SLJE 171500Z 00000KT 9999 NSC 27/17 Q1023


Station Type Date Time Source
SLJE Decoded METAR 2019/06/17 15:00 UTC NOAA

San Jose De Chiquitos, Bolivia (SLJE) 17-48S 060-44W
Jun 17, 2019 - 11:00 AM EDT / 2019.06.17 1500 UTC
Wind: Calm:0
Visibility: greater than 7 mile(s):0
Temperature: 80 F (27 C)
Dew Point: 62 F (17 C)
Relative Humidity: 54%
Pressure (altimeter): 30.21 in. Hg (1023 hPa)
ob: SLJE 171500Z 00000KT 9999 NSC 27/17 Q1023
cycle: 15

Station Type Date Time Source
SLJE TAF 2009/01/07 11:00 UTC NOAA

METAR SLJE 071100Z 00000KT 9999 SKC 21/18 Q1014

Example: see airport list